Time;durP1;ratioP1;P1;durP2;ratioP2;P2;SDS_P1;SDS_P2;PMS_P1;PMS_P2;Temp;Humidity;BMP_temperature;BMP_pressure;BME280_temperature;BME280_humidity;BME280_pressure;Samples;Min_cycle;Max_cycle;Signal;HPM_P1;HPM_P2
2022/03/11 00:02:06;;;;;;;37.00;17.65;;;;;;;-149.78;100.00;50260.22;4810497;29;20428;-70
2022/03/11 00:04:32;;;;;;;42.70;17.58;;;;;;;-149.78;100.00;50238.72;4840823;29;20068;-70
2022/03/11 00:06:58;;;;;;;39.33;18.65;;;;;;;-149.78;100.00;50240.66;4825688;29;20435;-70
2022/03/11 00:09:23;;;;;;;39.15;17.25;;;;;;;-149.78;100.00;50291.50;4841983;29;20038;-70
2022/03/11 00:11:49;;;;;;;41.22;17.25;;;;;;;-149.78;100.00;50232.84;4812584;29;20424;-70
2022/03/11 00:14:15;;;;;;;34.20;16.33;;;;;;;-149.78;100.00;50270.00;4825133;29;20046;-70
2022/03/11 00:16:41;;;;;;;36.55;17.48;;;;;;;-149.78;100.00;50279.78;4825460;29;20042;-70
2022/03/11 00:19:07;;;;;;;35.25;16.67;;;;;;;-149.78;100.00;50287.59;4841729;29;20094;-70
2022/03/11 00:21:33;;;;;;;36.13;17.30;;;;;;;-149.78;100.00;50264.13;4825549;29;20050;-70
2022/03/11 00:23:59;;;;;;;39.05;17.92;;;;;;;-149.78;100.00;50264.13;4841647;29;20098;-70
2022/03/11 00:26:25;;;;;;;37.63;17.25;;;;;;;-149.78;100.00;50256.31;4841638;29;20034;-70
2022/03/11 00:28:51;;;;;;;39.45;18.00;;;;;;;-149.78;100.00;50275.88;4825352;29;20125;-70
2022/03/11 00:31:16;;;;;;;39.95;18.90;;;;;;;-149.78;100.00;50291.50;4824607;29;20164;-70
2022/03/11 00:33:43;;;;;;;35.00;16.52;;;;;;;-149.78;100.00;50273.91;4825297;29;21067;-70
2022/03/11 00:36:09;;;;;;;38.75;18.08;;;;;;;-149.78;100.00;50291.50;4841509;29;20098;-70
2022/03/11 00:38:35;;;;;;;39.05;18.23;;;;;;;-149.78;100.00;50264.13;4841425;29;20132;-70
2022/03/11 00:41:02;;;;;;;36.35;17.77;;;;;;;-149.78;100.00;50260.22;4841426;29;20054;-70
2022/03/11 00:43:28;;;;;;;37.97;18.15;;;;;;;-149.78;100.00;50232.84;4841540;29;20038;-70
2022/03/11 00:45:54;;;;;;;37.00;18.45;;;;;;;-149.78;100.00;50299.34;4825235;29;20042;-70
2022/03/11 00:48:21;;;;;;;46.42;18.90;;;;;;;-149.78;100.00;50240.66;4825278;29;20068;-70
2022/03/11 00:50:47;;;;;;;40.72;19.08;;;;;;;-149.78;100.00;50283.69;4825100;29;20466;-71
2022/03/11 00:53:13;;;;;;;39.17;18.50;;;;;;;-149.78;100.00;50236.75;4825190;29;20136;-70
2022/03/11 00:55:39;;;;;;;38.22;17.67;;;;;;;-149.78;100.00;50275.88;4824980;29;20125;-70
2022/03/11 00:58:05;;;;;;;40.83;18.77;;;;;;;-149.78;100.00;50268.03;4841307;29;20045;-70
2022/03/11 01:00:32;;;;;;;43.45;18.65;;;;;;;-149.78;100.00;50264.13;4824857;29;20045;-71
2022/03/11 01:02:57;;;;;;;44.53;18.75;;;;;;;-149.78;100.00;50283.69;4841252;29;20041;-70
2022/03/11 01:05:23;;;;;;;42.35;19.60;;;;;;;-149.78;100.00;50271.97;4825012;29;20486;-70
2022/03/11 01:07:49;;;;;;;42.38;19.92;;;;;;;-149.78;100.00;50271.97;4841311;29;20042;-70
2022/03/11 01:10:14;;;;;;;46.53;20.35;;;;;;;-149.78;100.00;50295.44;4824534;29;20053;-71
2022/03/11 01:12:40;;;;;;;43.42;19.67;;;;;;;-149.78;100.00;50287.59;4823779;29;20039;-70
2022/03/11 01:15:07;;;;;;;41.60;18.67;;;;;;;-149.78;100.00;50279.78;4831649;29;20093;-70
2022/03/11 01:17:33;;;;;;;43.40;18.95;;;;;;;-149.78;100.00;50279.78;4842242;29;20033;-70
2022/03/11 01:19:58;;;;;;;43.70;19.00;;;;;;;-149.78;100.00;50268.03;4841962;29;20085;-70
2022/03/11 01:22:24;;;;;;;41.08;19.15;;;;;;;-149.78;100.00;50291.50;4842042;29;20042;-71
2022/03/11 01:24:51;;;;;;;43.72;20.10;;;;;;;-149.78;100.00;50295.44;4842373;29;20060;-70
2022/03/11 01:27:17;;;;;;;43.15;19.52;;;;;;;-149.78;100.00;50299.34;4825765;29;20049;-70
2022/03/11 01:29:44;;;;;;;45.03;21.13;;;;;;;-149.78;100.00;50264.13;4841678;29;20057;-70
2022/03/11 01:32:10;;;;;;;50.08;20.40;;;;;;;-149.78;100.00;50264.13;4840590;29;20505;-70
2022/03/11 01:34:36;;;;;;;41.38;19.33;;;;;;;-149.78;100.00;50275.88;4825629;29;20046;-70
2022/03/11 01:37:02;;;;;;;43.20;20.42;;;;;;;-149.78;100.00;50283.69;4810297;29;20050;-70
2022/03/11 01:39:28;;;;;;;45.85;20.30;;;;;;;-149.78;100.00;50248.50;4825386;29;20110;-71
2022/03/11 01:41:54;;;;;;;47.65;21.00;;;;;;;-149.78;100.00;50311.06;4825600;29;20680;-70
2022/03/11 01:44:19;;;;;;;49.47;22.30;;;;;;;-149.78;100.00;50283.69;4845518;29;20071;-70
2022/03/11 01:46:45;;;;;;;48.95;22.25;;;;;;;-149.78;100.00;50287.59;4845613;29;20049;-70
2022/03/11 01:49:11;;;;;;;49.88;21.98;;;;;;;-149.78;100.00;50303.25;4844214;29;20046;-70
2022/03/11 01:51:40;;;;;;;55.47;22.42;;;;;;;-149.78;100.00;50271.97;4828910;29;20041;-70
2022/03/11 01:54:06;;;;;;;51.20;22.05;;;;;;;-149.78;100.00;50264.13;4845047;29;20034;-70
2022/03/11 01:56:32;;;;;;;56.00;22.98;;;;;;;-149.78;100.00;50299.34;4845186;29;20038;-70
2022/03/11 01:58:58;;;;;;;55.22;21.75;;;;;;;-149.78;100.00;50293.47;4845122;29;20041;-70
2022/03/11 02:01:25;;;;;;;49.92;22.77;;;;;;;-149.78;100.00;50295.44;4844850;29;20133;-70
2022/03/11 02:03:50;;;;;;;55.53;24.05;;;;;;;-149.78;100.00;50244.59;4845422;29;20041;-70
2022/03/11 02:06:18;;;;;;;54.72;23.73;;;;;;;-149.78;100.00;50268.03;4845192;29;20045;-70
2022/03/11 02:08:44;;;;;;;50.78;22.00;;;;;;;-149.78;100.00;50311.06;4828367;29;20038;-70
2022/03/11 02:11:13;;;;;;;51.60;23.00;;;;;;;-149.78;100.00;50260.22;4820819;29;20195;-70
2022/03/11 02:13:47;;;;;;;51.35;23.67;;;;;;;-149.78;100.00;50295.44;4826441;29;20121;-70
2022/03/11 02:16:36;;;;;;;56.60;23.98;;;;;;;-149.78;100.00;50279.78;4842454;29;20038;-70
2022/03/11 02:19:01;;;;;;;58.15;24.23;;;;;;;-149.78;100.00;50291.50;4844049;29;20034;-70
2022/03/11 02:21:27;;;;;;;55.55;24.55;;;;;;;-149.78;100.00;50291.50;4843805;29;20372;-70
2022/03/11 02:23:55;;;;;;;56.17;23.83;;;;;;;-149.78;100.00;50281.75;4843735;29;20049;-70
2022/03/11 02:26:23;;;;;;;56.47;23.70;;;;;;;-149.78;100.00;50279.78;4843760;29;20037;-70
2022/03/11 02:28:51;;;;;;;51.50;23.92;;;;;;;-149.78;100.00;50303.25;4843772;29;20045;-70
2022/03/11 02:31:18;;;;;;;52.50;23.33;;;;;;;-149.78;100.00;50268.03;4812483;29;20030;-70
2022/03/11 02:33:44;;;;;;;59.65;24.48;;;;;;;-149.78;100.00;50307.16;4835916;29;20061;-70
2022/03/11 02:36:10;;;;;;;52.83;23.38;;;;;;;-149.78;100.00;50283.69;4839890;29;20384;-70
2022/03/11 02:38:36;;;;;;;56.25;23.08;;;;;;;-149.78;100.00;50283.69;4843536;29;20429;-70
2022/03/11 02:41:02;;;;;;;53.50;23.17;;;;;;;-149.78;100.00;50275.88;4823454;29;20038;-70
2022/03/11 02:43:28;;;;;;;50.60;21.90;;;;;;;-149.78;100.00;50283.69;4836928;29;20147;-70
2022/03/11 02:45:53;;;;;;;52.83;23.33;;;;;;;-149.78;100.00;50350.19;4831952;29;20035;-70
2022/03/11 02:48:19;;;;;;;51.47;22.15;;;;;;;-149.78;100.00;50268.03;4813071;29;20556;-70
2022/03/11 02:50:45;;;;;;;51.03;21.95;;;;;;;-149.78;100.00;50295.44;4808935;29;20034;-70
2022/03/11 02:53:11;;;;;;;51.67;23.23;;;;;;;-149.78;100.00;50275.88;4808802;29;20049;-70
2022/03/11 02:55:37;;;;;;;56.85;23.75;;;;;;;-149.78;100.00;50271.97;4807858;29;20054;-70
2022/03/11 02:58:02;;;;;;;53.00;21.85;;;;;;;-149.78;100.00;50295.44;4825057;29;20054;-70
2022/03/11 03:00:28;;;;;;;49.05;20.92;;;;;;;-149.78;100.00;50275.88;4829938;29;20041;-70
2022/03/11 03:02:54;;;;;;;53.70;21.83;;;;;;;-149.78;100.00;50273.91;4820773;29;20098;-70
2022/03/11 03:05:20;;;;;;;47.45;21.98;;;;;;;-149.78;100.00;50328.69;4835417;29;20507;-70
2022/03/11 03:07:46;;;;;;;53.47;22.35;;;;;;;-149.78;100.00;50291.50;4843155;29;20034;-71
2022/03/11 03:10:12;;;;;;;53.72;22.33;;;;;;;-149.78;100.00;50266.09;4837788;29;20535;-70
2022/03/11 03:12:39;;;;;;;49.60;21.75;;;;;;;-149.78;100.00;50322.81;4824311;29;20145;-70
2022/03/11 03:15:07;;;;;;;56.08;22.23;;;;;;;-149.78;100.00;50287.59;4825114;29;20073;-70
2022/03/11 03:17:34;;;;;;;53.72;23.20;;;;;;;-149.78;100.00;50307.16;4824745;29;20395;-70
2022/03/11 03:20:02;;;;;;;50.03;22.20;;;;;;;-149.78;100.00;50268.03;4831931;29;20038;-70
2022/03/11 03:22:31;;;;;;;51.38;21.92;;;;;;;-149.78;100.00;50338.44;4835479;29;20057;-70
2022/03/11 03:25:00;;;;;;;53.20;22.80;;;;;;;-149.78;100.00;50299.34;4826708;29;20042;-70
2022/03/11 03:27:26;;;;;;;52.53;22.35;;;;;;;-149.78;100.00;50314.97;4826238;29;20046;-70
2022/03/11 03:29:52;;;;;;;54.03;22.85;;;;;;;-149.78;100.00;50268.03;4812586;29;20033;-70
2022/03/11 03:32:17;;;;;;;53.88;23.52;;;;;;;-149.78;100.00;50314.97;4826243;29;20518;-70
2022/03/11 03:34:43;;;;;;;53.65;22.75;;;;;;;-149.78;100.00;50307.16;4842617;29;20430;-70
2022/03/11 03:37:11;;;;;;;54.63;23.38;;;;;;;-149.78;100.00;50299.34;4842456;29;20078;-70
2022/03/11 03:39:38;;;;;;;52.83;22.85;;;;;;;-149.78;100.00;50266.09;4832108;29;20043;-70
2022/03/11 03:42:04;;;;;;;50.67;21.92;;;;;;;-149.78;100.00;50291.50;4824279;29;20386;-70
2022/03/11 03:44:32;;;;;;;56.50;23.25;;;;;;;-149.78;100.00;50275.88;4824325;29;20101;-70
2022/03/11 03:46:57;;;;;;;58.35;24.70;;;;;;;-149.78;100.00;50277.81;4824079;29;20117;-70
2022/03/11 03:49:23;;;;;;;55.65;24.30;;;;;;;-149.78;100.00;50279.78;4823999;29;20125;-70
2022/03/11 03:51:49;;;;;;;51.05;22.70;;;;;;;-149.78;100.00;50311.06;4824099;29;20375;-70
2022/03/11 03:54:16;;;;;;;58.33;25.33;;;;;;;-149.78;100.00;50291.50;4807789;29;20045;-70
2022/03/11 03:56:43;;;;;;;52.03;22.70;;;;;;;-149.78;100.00;50311.06;4836833;29;20049;-70
2022/03/11 03:59:12;;;;;;;56.17;22.25;;;;;;;-149.78;100.00;50291.50;4826194;29;20493;-70
2022/03/11 04:01:39;;;;;;;59.70;24.52;;;;;;;-149.78;100.00;50287.59;4842063;29;20038;-70
2022/03/11 04:04:06;;;;;;;54.80;22.55;;;;;;;-149.78;100.00;50303.25;4842007;29;20041;-70
2022/03/11 04:06:33;;;;;;;60.25;24.30;;;;;;;-149.78;100.00;50314.97;4838033;29;20536;-70
2022/03/11 04:09:01;;;;;;;56.72;24.13;;;;;;;-149.78;100.00;50314.97;4813582;29;20046;-70
2022/03/11 04:11:28;;;;;;;53.80;22.42;;;;;;;-149.78;100.00;50291.50;4840182;29;20398;-70
2022/03/11 04:13:57;;;;;;;63.25;25.45;;;;;;;-149.78;100.00;50322.81;4841991;29;20156;-70
2022/03/11 04:16:24;;;;;;;56.38;24.20;;;;;;;-149.78;100.00;50303.25;4825548;29;20046;-70
2022/03/11 04:18:51;;;;;;;57.20;23.83;;;;;;;-149.78;100.00;50270.00;4825520;29;20540;-70
2022/03/11 04:21:18;;;;;;;64.65;25.63;;;;;;;-149.78;100.00;50332.59;4823712;29;20400;-70
2022/03/11 04:23:45;;;;;;;64.57;24.02;;;;;;;-149.78;100.00;50275.88;4823788;29;20061;-70
2022/03/11 04:26:11;;;;;;;56.42;23.52;;;;;;;-149.78;100.00;50289.56;4823646;29;20369;-70
2022/03/11 04:28:37;;;;;;;60.13;25.48;;;;;;;-149.78;100.00;50275.88;4792028;29;20045;-70
2022/03/11 04:31:08;;;;;;;55.60;24.20;;;;;;;-149.78;100.00;50332.59;4837521;29;20038;-70
2022/03/11 04:33:34;;;;;;;61.20;24.17;;;;;;;-149.78;100.00;50283.69;4841459;29;20600;-70
2022/03/11 04:36:00;;;;;;;64.53;25.77;;;;;;;-149.78;100.00;50326.72;4840481;29;20041;-70
2022/03/11 04:38:26;;;;;;;59.75;25.25;;;;;;;-149.78;100.00;50311.06;4841629;29;20370;-70
2022/03/11 04:40:52;;;;;;;60.05;24.55;;;;;;;-149.78;100.00;50338.44;4823533;29;20121;-70
2022/03/11 04:43:19;;;;;;;59.58;24.40;;;;;;;-149.78;100.00;50297.38;4823483;29;20042;-70
2022/03/11 04:45:44;;;;;;;54.13;24.88;;;;;;;-149.78;100.00;50299.34;4807051;29;20057;-70
2022/03/11 04:48:10;;;;;;;60.17;24.80;;;;;;;-149.78;100.00;50307.16;4800858;29;20073;-70
2022/03/11 04:50:36;;;;;;;56.40;24.38;;;;;;;-149.78;100.00;50307.16;4819905;29;20026;-70
2022/03/11 04:53:03;;;;;;;57.83;24.23;;;;;;;-149.78;100.00;50289.56;4819908;29;20078;-70
2022/03/11 04:55:29;;;;;;;61.92;25.27;;;;;;;-149.78;100.00;50309.13;4788767;29;20093;-70
2022/03/11 04:57:55;;;;;;;59.05;23.92;;;;;;;-149.78;100.00;50314.97;4822465;29;20118;-70
2022/03/11 05:00:21;;;;;;;56.65;23.98;;;;;;;-149.78;100.00;50295.44;4803360;29;20153;-70
2022/03/11 05:02:46;;;;;;;57.30;24.35;;;;;;;-149.78;100.00;50301.28;4819450;29;20026;-70
2022/03/11 05:05:13;;;;;;;54.88;23.40;;;;;;;-149.78;100.00;50358.00;4806736;29;20045;-70
2022/03/11 05:07:39;;;;;;;58.83;23.45;;;;;;;-149.78;100.00;50305.22;4823190;29;20134;-70
2022/03/11 05:10:06;;;;;;;56.45;23.52;;;;;;;-149.78;100.00;50314.97;4829075;29;20116;-70
2022/03/11 05:12:32;;;;;;;55.67;22.30;;;;;;;-149.78;100.00;50260.22;4824948;29;20038;-70
2022/03/11 05:14:57;;;;;;;55.92;22.90;;;;;;;-149.78;100.00;50322.81;4841228;29;20037;-69
2022/03/11 05:17:23;;;;;;;54.72;22.63;;;;;;;-149.78;100.00;50314.97;4841157;29;20046;-70
2022/03/11 05:19:49;;;;;;;52.88;22.25;;;;;;;-149.78;100.00;50311.06;4837244;29;20038;-70
2022/03/11 05:22:15;;;;;;;56.50;22.52;;;;;;;-149.78;100.00;50295.44;4826375;29;20068;-70
2022/03/11 05:24:40;;;;;;;51.88;21.23;;;;;;;-149.78;100.00;50299.34;4826429;29;20038;-70
2022/03/11 05:27:07;;;;;;;49.42;20.10;;;;;;;-149.78;100.00;50320.84;4826245;29;20042;-70
2022/03/11 05:29:34;;;;;;;52.00;21.27;;;;;;;-149.78;100.00;50326.72;4813064;29;20428;-70
2022/03/11 05:32:00;;;;;;;51.35;21.27;;;;;;;-149.78;100.00;50328.69;4844549;29;20032;-70
2022/03/11 05:34:25;;;;;;;49.58;21.52;;;;;;;-149.78;100.00;50279.78;4844592;29;20090;-70
2022/03/11 05:36:51;;;;;;;52.88;21.63;;;;;;;-149.78;100.00;50311.06;4828272;29;20122;-70
2022/03/11 05:39:17;;;;;;;48.58;19.85;;;;;;;-149.78;100.00;50326.72;4837951;29;20031;-70
2022/03/11 05:41:43;;;;;;;47.03;20.35;;;;;;;-149.78;100.00;50303.25;4826009;29;20094;-70
2022/03/11 05:44:08;;;;;;;45.33;20.27;;;;;;;-149.78;100.00;50287.59;4826141;29;20091;-70
2022/03/11 05:46:34;;;;;;;47.72;19.52;;;;;;;-149.78;100.00;50346.28;4809915;29;20402;-70
2022/03/11 05:48:59;;;;;;;45.17;19.00;;;;;;;-149.78;100.00;50303.25;4826065;29;20137;-70
2022/03/11 05:51:25;;;;;;;46.95;19.60;;;;;;;-149.78;100.00;50342.38;4825284;29;20126;-70
2022/03/11 05:53:51;;;;;;;49.67;21.10;;;;;;;-149.78;100.00;50320.84;4825660;29;20052;-70
2022/03/11 05:56:17;;;;;;;44.63;18.63;;;;;;;-149.78;100.00;50307.16;4809661;29;20042;-70
2022/03/11 05:58:43;;;;;;;45.03;19.67;;;;;;;-149.78;100.00;50314.97;4825740;29;20411;-70
2022/03/11 06:01:08;;;;;;;47.15;19.65;;;;;;;-149.78;100.00;50287.59;4809651;29;20070;-70
2022/03/11 06:03:34;;;;;;;42.53;19.35;;;;;;;-149.78;100.00;50299.34;4825967;29;20538;-70
2022/03/11 06:06:00;;;;;;;43.95;18.67;;;;;;;-149.78;100.00;50342.38;4825701;29;20042;-70
2022/03/11 06:08:26;;;;;;;42.63;19.13;;;;;;;-149.78;100.00;50307.16;4825735;29;20061;-70
2022/03/11 06:10:52;;;;;;;42.47;18.98;;;;;;;-149.78;100.00;50340.41;4837840;29;20479;-70
2022/03/11 06:13:17;;;;;;;40.75;18.25;;;;;;;-149.78;100.00;50342.38;4843988;29;20374;-70
2022/03/11 06:15:45;;;;;;;40.30;17.85;;;;;;;-149.78;100.00;50320.84;4844034;29;20490;-70
2022/03/11 06:18:13;;;;;;;41.33;16.92;;;;;;;-149.78;100.00;50307.16;4843916;29;20107;-70
2022/03/11 06:20:39;;;;;;;39.95;18.10;;;;;;;-149.78;100.00;50314.97;4813906;29;20042;-70
2022/03/11 06:23:04;;;;;;;39.58;17.48;;;;;;;-149.78;100.00;50291.50;4825601;29;20577;-70
2022/03/11 06:25:30;;;;;;;41.38;17.20;;;;;;;-149.78;100.00;50330.63;4809373;29;20035;-70
2022/03/11 06:27:55;;;;;;;39.83;17.73;;;;;;;-149.78;100.00;50334.53;4825394;29;20195;-70
2022/03/11 06:30:21;;;;;;;38.05;17.60;;;;;;;-149.78;100.00;50307.16;4778993;29;20045;-70
2022/03/11 06:32:48;;;;;;;38.63;16.73;;;;;;;-149.78;100.00;50328.69;4825225;29;20050;-70
2022/03/11 06:35:15;;;;;;;38.72;16.95;;;;;;;-149.78;100.00;50270.00;4825347;29;20091;-70
2022/03/11 06:37:43;;;;;;;40.38;17.63;;;;;;;-149.78;100.00;50287.59;4823688;29;20105;-70
2022/03/11 06:40:10;;;;;;;38.35;17.55;;;;;;;-149.78;100.00;50289.56;4822368;29;20382;-70
2022/03/11 06:42:37;;;;;;;38.85;17.35;;;;;;;-149.78;100.00;50295.44;4823820;29;20042;-70
2022/03/11 06:45:03;;;;;;;40.22;17.65;;;;;;;-149.78;100.00;50287.59;4790979;29;20080;-70
2022/03/11 06:47:29;;;;;;;38.80;16.85;;;;;;;-149.78;100.00;50307.16;4806175;29;20441;-69
2022/03/11 06:49:55;;;;;;;39.63;17.55;;;;;;;-149.78;100.00;50352.16;4812257;29;20030;-70
2022/03/11 06:52:21;;;;;;;40.22;17.38;;;;;;;-149.78;100.00;50279.78;4823077;29;20046;-70
2022/03/11 06:54:48;;;;;;;40.08;17.35;;;;;;;-149.78;100.00;50326.72;4796864;29;20049;-69
2022/03/11 06:57:15;;;;;;;43.28;18.98;;;;;;;-149.78;100.00;50358.00;4820902;29;20038;-70
2022/03/11 06:59:47;;;;;;;41.25;18.73;;;;;;;-149.78;100.00;50295.44;4821799;29;20054;-70
2022/03/11 07:02:12;;;;;;;44.00;19.35;;;;;;;-149.78;100.00;50348.22;4803315;29;20506;-70
2022/03/11 07:04:38;;;;;;;45.88;18.58;;;;;;;-149.78;100.00;50303.25;4823990;29;20034;-70
2022/03/11 07:07:04;;;;;;;45.22;19.23;;;;;;;-149.78;100.00;50314.97;4822672;29;20062;-69
2022/03/11 07:09:30;;;;;;;49.67;20.30;;;;;;;-149.78;100.00;50307.16;4823579;29;20070;-69
2022/03/11 07:11:57;;;;;;;47.65;19.95;;;;;;;-149.78;100.00;50332.59;4811325;29;20073;-69
2022/03/11 07:14:24;;;;;;;54.08;20.38;;;;;;;-149.78;100.00;50326.72;4791314;29;20043;-69
2022/03/11 07:16:52;;;;;;;52.90;21.17;;;;;;;-149.78;100.00;50299.34;4806628;29;20046;-70
2022/03/11 07:19:19;;;;;;;57.90;21.98;;;;;;;-149.78;100.00;50342.38;4795077;29;20486;-70
2022/03/11 07:21:45;;;;;;;54.17;21.60;;;;;;;-149.78;100.00;50311.06;4808881;29;20046;-69
2022/03/11 07:24:11;;;;;;;56.28;21.45;;;;;;;-149.78;100.00;50275.88;4816470;29;20101;-69
2022/03/11 07:26:36;;;;;;;55.75;23.85;;;;;;;-149.78;100.00;50342.38;4822031;29;20121;-70
2022/03/11 07:29:02;;;;;;;61.88;23.58;;;;;;;-149.78;100.00;50307.16;4806070;29;20038;-71
2022/03/11 07:31:28;;;;;;;56.38;22.42;;;;;;;-149.78;100.00;50314.97;4805704;29;20038;-72
2022/03/11 07:33:56;;;;;;;60.60;24.42;;;;;;;-149.78;100.00;50326.72;4821282;29;20559;-72
2022/03/11 07:36:22;;;;;;;60.35;23.77;;;;;;;-149.78;100.00;50314.97;4821363;29;20034;-71
2022/03/11 07:38:48;;;;;;;59.72;22.65;;;;;;;-149.78;100.00;50303.25;4789434;29;20030;-71
2022/03/11 07:41:18;;;;;;;57.53;23.83;;;;;;;-149.78;100.00;50334.53;4797946;29;20042;-70
2022/03/11 07:43:46;;;;;;;60.80;24.08;;;;;;;-149.78;100.00;50358.00;4803062;29;20039;-72
2022/03/11 07:46:15;;;;;;;58.10;23.27;;;;;;;-149.78;100.00;50307.16;4803887;29;20034;-72
2022/03/11 07:48:42;;;;;;;59.33;22.80;;;;;;;-149.78;100.00;50287.59;4806591;29;20435;-71
2022/03/11 07:51:08;;;;;;;58.17;24.75;;;;;;;-149.78;100.00;50291.50;4807772;29;20034;-72
2022/03/11 07:53:35;;;;;;;57.40;23.95;;;;;;;-149.78;100.00;50334.53;4823464;29;20034;-70
2022/03/11 07:56:03;;;;;;;55.95;22.55;;;;;;;-149.78;100.00;50260.22;4806306;29;20079;-69
2022/03/11 07:58:30;;;;;;;50.22;22.58;;;;;;;-149.78;100.00;50264.13;4820272;29;20176;-71
2022/03/11 08:00:56;;;;;;;53.03;21.77;;;;;;;-149.78;100.00;50236.75;4822420;29;20125;-69
2022/03/11 08:03:22;;;;;;;52.65;22.50;;;;;;;-149.78;100.00;50240.66;4805418;29;20125;-70
2022/03/11 08:05:49;;;;;;;49.92;21.90;;;;;;;-149.78;100.00;50215.25;4821690;29;20077;-70
2022/03/11 08:08:15;;;;;;;49.53;21.25;;;;;;;-149.78;100.00;50262.19;4809265;29;20030;-71
2022/03/11 08:10:43;;;;;;;44.60;20.52;;;;;;;-149.78;100.00;50234.81;4822404;29;20065;-70
2022/03/11 08:13:09;;;;;;;44.28;20.63;;;;;;;-149.78;100.00;50256.31;4802259;29;20399;-71
2022/03/11 08:15:35;;;;;;;48.05;22.05;;;;;;;-149.78;100.00;50225.03;4802382;29;20038;-70
2022/03/11 08:18:03;;;;;;;49.50;21.58;;;;;;;-149.78;100.00;50264.13;4822420;29;20038;-71
2022/03/11 08:20:29;;;;;;;46.70;22.38;;;;;;;-149.78;100.00;50256.31;4820740;29;20110;-71
2022/03/11 08:22:56;;;;;;;46.95;22.80;;;;;;;-149.78;100.00;50256.31;4821052;29;20030;-71
2022/03/11 08:25:26;;;;;;;50.03;21.40;;;;;;;-149.78;100.00;50248.50;4805577;29;20093;-72
2022/03/11 08:27:54;;;;;;;44.78;20.45;;;;;;;-149.78;100.00;50234.81;4803705;29;20042;-72
2022/03/11 08:30:20;;;;;;;41.63;19.58;;;;;;;-149.78;100.00;50246.53;4812351;29;20057;-73
2022/03/11 08:32:48;;;;;;;48.38;22.30;;;;;;;-149.78;100.00;50244.59;4825023;29;20114;-71
2022/03/11 08:35:14;;;;;;;44.90;20.73;;;;;;;-149.78;100.00;50189.81;4827672;29;20402;-71
2022/03/11 08:37:41;;;;;;;44.10;21.70;;;;;;;-149.78;100.00;50246.53;4823232;29;20034;-71
2022/03/11 08:40:09;;;;;;;47.38;20.88;;;;;;;-149.78;100.00;50236.75;4821315;29;20102;-71
2022/03/11 08:42:35;;;;;;;48.47;20.98;;;;;;;-149.78;100.00;50221.13;4823193;29;20049;-71
2022/03/11 08:45:04;;;;;;;46.53;21.15;;;;;;;-149.78;100.00;50217.19;4823325;29;20460;-71
2022/03/11 08:47:30;;;;;;;49.88;20.48;;;;;;;-149.78;100.00;50248.50;4807053;29;20125;-71
2022/03/11 08:49:56;;;;;;;44.40;20.40;;;;;;;-149.78;100.00;50244.59;4822295;29;20554;-71
2022/03/11 08:52:24;;;;;;;45.20;19.67;;;;;;;-149.78;100.00;50185.91;4822557;29;20043;-71
2022/03/11 08:54:52;;;;;;;42.10;20.17;;;;;;;-149.78;100.00;50182.00;4823432;29;20046;-71
2022/03/11 08:57:18;;;;;;;38.85;19.33;;;;;;;-149.78;100.00;50225.03;4821864;29;20141;-70
2022/03/11 08:59:44;;;;;;;47.72;21.35;;;;;;;-149.78;100.00;50242.63;4821960;29;20522;-71
2022/03/11 09:02:09;;;;;;;44.42;20.40;;;;;;;-149.78;100.00;50244.59;4806690;29;20050;-70
2022/03/11 09:04:35;;;;;;;42.83;18.83;;;;;;;-149.78;100.00;50166.34;4808291;29;20034;-70
2022/03/11 09:07:03;;;;;;;39.38;19.20;;;;;;;-149.78;100.00;50217.19;4839717;29;20471;-71
2022/03/11 09:09:30;;;;;;;42.15;19.38;;;;;;;-149.78;100.00;50189.81;4840155;29;20044;-71
2022/03/11 09:11:56;;;;;;;39.20;18.65;;;;;;;-149.78;100.00;50183.97;4840536;29;20034;-70
2022/03/11 09:14:21;;;;;;;38.83;17.92;;;;;;;-149.78;100.00;50154.63;4824790;29;20052;-71
2022/03/11 09:16:47;;;;;;;36.38;16.70;;;;;;;-149.78;100.00;50146.81;4824980;29;20126;-70
2022/03/11 09:19:13;;;;;;;38.45;17.63;;;;;;;-149.78;100.00;50236.75;4837168;29;20041;-71
2022/03/11 09:21:39;;;;;;;35.53;16.80;;;;;;;-149.78;100.00;50240.66;4806655;29;20102;-70
2022/03/11 09:24:05;;;;;;;36.22;17.45;;;;;;;-149.78;100.00;50176.13;4806623;29;20887;-70
2022/03/11 09:26:31;;;;;;;34.10;17.42;;;;;;;-149.78;100.00;50174.19;4823094;29;20061;-71
2022/03/11 09:28:57;;;;;;;37.72;17.85;;;;;;;-149.78;100.00;50213.28;4821674;29;20482;-70
2022/03/11 09:31:22;;;;;;;38.95;18.45;;;;;;;-149.78;100.00;50189.81;4839405;29;20048;-70
2022/03/11 09:33:48;;;;;;;40.30;18.63;;;;;;;-149.78;100.00;50211.34;4841080;29;20061;-70
2022/03/11 09:36:14;;;;;;;36.83;17.10;;;;;;;-149.78;100.00;50182.00;4824847;29;20033;-70
2022/03/11 09:38:40;;;;;;;36.05;17.60;;;;;;;-149.78;100.00;50174.19;4807752;29;20517;-71
2022/03/11 09:41:08;;;;;;;41.83;17.80;;;;;;;-149.78;100.00;50205.47;4822812;29;20042;-71
2022/03/11 09:43:35;;;;;;;38.75;19.25;;;;;;;-149.78;100.00;50240.66;4822944;29;20065;-70
2022/03/11 09:46:02;;;;;;;39.65;17.63;;;;;;;-149.78;100.00;50180.03;4821559;29;20045;-70
2022/03/11 09:48:28;;;;;;;39.40;17.55;;;;;;;-149.78;100.00;50162.44;4806437;29;20038;-71
2022/03/11 09:50:55;;;;;;;31.33;16.10;;;;;;;-149.78;100.00;50209.38;4806537;29;20041;-71
2022/03/11 09:53:22;;;;;;;34.42;17.05;;;;;;;-149.78;100.00;50236.75;4822521;29;20066;-71
2022/03/11 09:55:47;;;;;;;35.05;15.57;;;;;;;-149.78;100.00;50217.19;4806291;29;20042;-71
2022/03/11 09:58:13;;;;;;;33.95;16.13;;;;;;;-149.78;100.00;50228.94;4822506;29;20501;-70
2022/03/11 10:00:40;;;;;;;37.40;17.08;;;;;;;-149.78;100.00;50226.97;4806250;29;20645;-70
2022/03/11 10:03:05;;;;;;;31.13;15.27;;;;;;;-149.78;100.00;50225.03;4806324;29;20046;-70
2022/03/11 10:05:54;;;;;;;32.38;15.13;;;;;;;-149.78;100.00;50248.50;4825514;29;20060;-70
2022/03/11 10:08:37;;;;;;;33.05;14.57;;;;;;;-149.78;100.00;50221.13;4825500;29;20038;-69
2022/03/11 10:11:22;;;;;;;35.55;13.98;;;;;;;-149.78;100.00;50240.66;4838725;29;20116;-69
2022/03/11 10:13:48;;;;;;;32.70;13.88;;;;;;;-149.78;100.00;50234.81;4843806;29;20037;-70
2022/03/11 10:16:19;;;;;;;31.40;14.68;;;;;;;-149.78;100.00;50260.22;4843900;29;20038;-69
2022/03/11 10:19:02;;;;;;;32.00;15.20;;;;;;;-149.78;100.00;50260.22;4844091;29;20455;-70
2022/03/11 10:21:30;;;;;;;34.33;15.30;;;;;;;-149.78;100.00;50236.75;4807420;29;20062;-70
2022/03/11 10:23:56;;;;;;;31.02;14.07;;;;;;;-149.78;100.00;50262.19;4807563;29;20038;-71
2022/03/11 10:26:34;;;;;;;39.55;17.30;;;;;;;-149.78;100.00;50268.03;4791367;29;20095;-71
2022/03/11 10:29:02;;;;;;;34.03;15.07;;;;;;;-149.78;100.00;50226.97;4807303;29;20039;-71
2022/03/11 10:31:36;;;;;;;38.13;16.17;;;;;;;-149.78;100.00;50264.13;4821388;29;20091;-70
2022/03/11 10:34:25;;;;;;;38.88;16.95;;;;;;;-149.78;100.00;50256.31;4822341;29;20529;-71
2022/03/11 10:36:55;;;;;;;36.92;16.98;;;;;;;-149.78;100.00;50258.28;4827070;29;20034;-70
2022/03/11 10:39:30;;;;;;;41.38;16.70;;;;;;;-149.78;100.00;50287.59;4833166;29;20026;-71
2022/03/11 10:42:00;;;;;;;35.63;16.42;;;;;;;-149.78;100.00;50260.22;4808771;29;20038;-71
2022/03/11 10:44:28;;;;;;;39.45;17.27;;;;;;;-149.78;100.00;50248.50;4811593;29;20066;-70
2022/03/11 10:46:55;;;;;;;37.08;16.52;;;;;;;-149.78;100.00;50225.03;4797330;29;20187;-70
2022/03/11 10:49:31;;;;;;;42.20;16.80;;;;;;;-149.78;100.00;50256.31;4824685;29;20649;-71
2022/03/11 10:51:58;;;;;;;41.42;18.63;;;;;;;-149.78;100.00;50260.22;4824208;29;20539;-72
2022/03/11 10:54:26;;;;;;;45.42;17.33;;;;;;;-149.78;100.00;50252.41;4823925;29;20046;-72